createdAt,value
2023-01-02T00:01:15.741Z,71.27
2023-01-02T00:03:43.780Z,70.90
2023-01-02T00:06:11.788Z,71.15
2023-01-02T00:08:41.035Z,71.31
2023-01-02T00:11:08.884Z,71.34
2023-01-02T00:13:36.875Z,71.27
2023-01-02T00:16:05.045Z,71.55
2023-01-02T00:18:33.009Z,71.43
2023-01-02T00:21:03.745Z,71.44
2023-01-02T00:23:33.010Z,71.63
2023-01-02T00:26:02.241Z,71.88
2023-01-02T00:28:30.835Z,71.54
2023-01-02T00:30:59.597Z,71.48
2023-01-02T00:33:27.492Z,71.75
2023-01-02T00:35:55.330Z,71.61
2023-01-02T00:38:23.203Z,72.07
2023-01-02T00:40:51.039Z,72.07
2023-01-02T00:43:20.257Z,72.28
2023-01-02T00:45:48.849Z,73.06
2023-01-02T00:48:16.836Z,73.76
2023-01-02T00:50:45.517Z,74.28
2023-01-02T00:53:13.615Z,74.55
2023-01-02T00:55:41.723Z,75.31
2023-01-02T00:58:09.692Z,75.15
2023-01-02T01:00:39.049Z,75.76
2023-01-02T01:03:07.095Z,76.72
2023-01-02T01:05:35.133Z,76.39
2023-01-02T01:08:03.149Z,76.28
2023-01-02T01:10:31.024Z,76.75
2023-01-02T01:12:59.076Z,77.45
2023-01-02T01:15:26.895Z,77.54
2023-01-02T01:17:56.242Z,77.72
2023-01-02T01:20:24.043Z,77.98
2023-01-02T01:22:52.162Z,78.54
2023-01-02T01:25:20.231Z,78.64
2023-01-02T01:27:48.176Z,79.21
2023-01-02T01:30:16.212Z,79.44
2023-01-02T01:32:44.117Z,79.85
2023-01-02T01:35:13.604Z,80.27
2023-01-02T01:37:41.532Z,80.79
2023-01-02T01:40:09.907Z,80.95
2023-01-02T01:42:37.818Z,80.60
2023-01-02T01:45:14.531Z,80.29
2023-01-02T01:47:46.977Z,80.01
2023-01-02T01:50:20.993Z,79.70
2023-01-02T01:52:53.193Z,79.82
2023-01-02T01:55:28.034Z,79.89
2023-01-02T01:57:59.360Z,80.25
2023-01-02T02:00:27.324Z,80.70
2023-01-02T02:03:00.388Z,80.96
2023-01-02T02:05:32.129Z,80.80
2023-01-02T02:08:09.369Z,80.49
2023-01-02T02:10:38.094Z,80.92
2023-01-02T02:13:06.142Z,81.31
2023-01-02T02:15:42.603Z,81.38
2023-01-02T02:18:27.211Z,81.62
2023-01-02T02:21:02.092Z,81.39
2023-01-02T02:23:54.354Z,81.58
2023-01-02T02:26:42.473Z,81.40
2023-01-02T02:29:34.981Z,81.87
2023-01-02T02:32:11.990Z,82.21
2023-01-02T02:34:48.382Z,82.42
2023-01-02T02:37:24.696Z,82.49
2023-01-02T02:40:02.304Z,82.26
2023-01-02T02:42:43.231Z,82.89
2023-01-02T02:45:21.122Z,83.66
2023-01-02T02:47:57.169Z,83.81
2023-01-02T02:50:33.671Z,84.03
2023-01-02T02:53:09.095Z,83.84
2023-01-02T02:55:40.721Z,83.58
2023-01-02T02:58:09.883Z,83.96
2023-01-02T03:00:37.877Z,84.15
2023-01-02T03:03:17.086Z,83.73
2023-01-02T03:05:56.705Z,84.18
2023-01-02T03:08:33.859Z,83.83
2023-01-02T03:11:04.496Z,84.03
2023-01-02T03:13:44.932Z,83.70
2023-01-02T03:16:18.697Z,84.48
2023-01-02T03:18:55.302Z,84.68
2023-01-02T03:21:31.395Z,84.58
2023-01-02T03:24:05.481Z,84.36
2023-01-02T03:26:36.062Z,84.33
2023-01-02T03:29:09.276Z,84.04
2023-01-02T03:31:41.618Z,84.25
2023-01-02T03:34:15.485Z,84.01
2023-01-02T03:36:46.661Z,84.28
2023-01-02T03:39:19.172Z,84.08
2023-01-02T03:41:54.253Z,84.51
2023-01-02T03:44:25.010Z,84.25
2023-01-02T03:47:00.186Z,84.85
2023-01-02T03:49:33.948Z,84.71
2023-01-02T03:52:01.898Z,84.78
2023-01-02T03:54:31.039Z,84.87
2023-01-02T03:57:03.671Z,85.44
2023-01-02T03:59:55.964Z,85.86
2023-01-02T04:02:33.179Z,85.65
2023-01-02T04:05:08.310Z,85.37
2023-01-02T04:07:43.847Z,84.83
2023-01-02T04:10:15.385Z,84.41
2023-01-02T04:12:48.151Z,84.12
2023-01-02T04:15:20.972Z,84.53
2023-01-02T04:17:52.869Z,84.26
2023-01-02T04:20:27.693Z,84.47
2023-01-02T04:22:58.538Z,84.29
2023-01-02T04:25:32.079Z,83.51
2023-01-02T04:28:02.073Z,84.05
2023-01-02T04:30:33.360Z,84.24
2023-01-02T04:33:07.855Z,84.19
2023-01-02T04:35:37.334Z,84.16
2023-01-02T04:38:09.325Z,84.38
2023-01-02T04:40:37.782Z,84.23
2023-01-02T04:43:08.412Z,84.50
2023-01-02T04:45:36.281Z,84.26
2023-01-02T04:48:04.407Z,84.70
2023-01-02T04:50:32.345Z,84.61
2023-01-02T04:53:03.287Z,84.70
2023-01-02T04:55:31.315Z,84.26
2023-01-02T04:57:59.368Z,84.50
2023-01-02T05:00:27.446Z,84.80
2023-01-02T05:02:55.333Z,84.73
2023-01-02T05:05:23.233Z,84.78
2023-01-02T05:07:51.131Z,84.43
2023-01-02T05:10:20.513Z,84.63
2023-01-02T05:12:48.371Z,84.97
2023-01-02T05:15:16.465Z,85.38
2023-01-02T05:17:44.319Z,85.72
2023-01-02T05:20:14.069Z,85.06
2023-01-02T05:23:00.556Z,85.09
2023-01-02T05:25:33.886Z,85.41
2023-01-02T05:28:03.056Z,84.90
2023-01-02T05:30:31.132Z,85.78
2023-01-02T05:32:59.032Z,85.85
2023-01-02T05:35:32.157Z,86.03
2023-01-02T05:38:00.807Z,85.83
2023-01-02T05:40:30.451Z,85.17
2023-01-02T05:42:59.498Z,84.88
2023-01-02T05:45:27.742Z,84.98
2023-01-02T05:47:55.591Z,85.24
2023-01-02T05:50:23.494Z,84.78
2023-01-02T05:52:51.323Z,85.03
2023-01-02T05:55:19.183Z,84.80
2023-01-02T05:57:48.495Z,84.94
2023-01-02T06:00:17.183Z,84.73
2023-01-02T06:02:48.336Z,84.17
2023-01-02T06:05:17.132Z,84.29
2023-01-02T06:07:45.045Z,84.12
2023-01-02T06:10:13.051Z,83.95
2023-01-02T06:12:41.443Z,83.85
2023-01-02T06:15:11.992Z,83.89
2023-01-02T06:17:39.938Z,84.14
2023-01-02T06:20:09.023Z,84.27
2023-01-02T06:22:37.712Z,84.32
2023-01-02T06:25:06.815Z,84.37
2023-01-02T06:27:34.668Z,83.84
2023-01-02T06:30:02.698Z,83.91
2023-01-02T06:32:32.134Z,84.10
2023-01-02T06:35:00.048Z,84.43
2023-01-02T06:37:27.938Z,84.47
2023-01-02T06:39:56.918Z,84.30
2023-01-02T06:42:24.700Z,83.66
2023-01-02T06:44:52.556Z,83.56
2023-01-02T06:47:20.481Z,83.81
2023-01-02T06:49:49.759Z,84.26
2023-01-02T06:52:17.938Z,84.44
2023-01-02T06:54:45.905Z,84.26
2023-01-02T06:57:13.813Z,84.23
2023-01-02T06:59:42.781Z,84.60
2023-01-02T07:02:12.536Z,84.64
2023-01-02T07:04:41.071Z,84.17
2023-01-02T07:07:10.672Z,85.12
2023-01-02T07:09:38.653Z,83.70
2023-01-02T07:12:07.037Z,81.92
2023-01-02T07:14:35.047Z,80.13
2023-01-02T07:17:02.951Z,79.62
2023-01-02T07:19:30.821Z,79.55
2023-01-02T07:21:58.632Z,78.97
2023-01-02T07:24:27.913Z,78.80
2023-01-02T07:26:55.917Z,78.07
2023-01-02T07:29:23.987Z,78.11
2023-01-02T07:31:52.003Z,77.10
2023-01-02T07:34:19.895Z,77.22
2023-01-02T07:36:47.885Z,76.84
2023-01-02T07:39:16.288Z,76.49
2023-01-02T07:41:45.717Z,75.79
2023-01-02T07:44:15.797Z,76.16
2023-01-02T07:46:43.768Z,76.09
2023-01-02T07:49:13.385Z,75.70
2023-01-02T07:51:41.353Z,75.22
2023-01-02T07:54:09.476Z,74.88
2023-01-02T07:56:37.383Z,74.87
2023-01-02T07:59:06.915Z,75.01
2023-01-02T08:01:34.849Z,74.96
2023-01-02T08:04:02.924Z,75.12
2023-01-02T08:06:31.149Z,74.35
2023-01-02T08:08:59.099Z,74.18
2023-01-02T08:11:27.090Z,74.17
2023-01-02T08:13:54.910Z,74.47
2023-01-02T08:16:24.537Z,74.55
2023-01-02T08:18:55.589Z,74.30
2023-01-02T08:21:24.682Z,74.34
2023-01-02T08:23:52.893Z,74.41
2023-01-02T08:26:21.647Z,74.24
2023-01-02T08:28:49.987Z,73.79
2023-01-02T08:31:21.161Z,74.26
2023-01-02T08:33:52.213Z,73.73
2023-01-02T08:36:20.614Z,73.93
2023-01-02T08:38:48.812Z,74.69
2023-01-02T08:41:16.764Z,74.08
2023-01-02T08:43:44.780Z,74.49
2023-01-02T08:46:12.863Z,75.22
2023-01-02T08:48:41.009Z,74.80
2023-01-02T08:51:12.017Z,75.34
2023-01-02T08:53:39.911Z,76.02
2023-01-02T08:56:25.273Z,75.65
2023-01-02T08:58:54.369Z,76.16
2023-01-02T09:01:23.566Z,76.51
2023-01-02T09:03:53.433Z,76.88
2023-01-02T09:06:24.746Z,77.49
2023-01-02T09:08:53.351Z,77.54
2023-01-02T09:11:24.098Z,77.77
2023-01-02T09:13:52.549Z,78.07
2023-01-02T09:16:21.652Z,77.95
2023-01-02T09:18:50.011Z,77.59
2023-01-02T09:21:18.624Z,77.63
2023-01-02T09:23:47.959Z,78.11
2023-01-02T09:26:16.555Z,77.20
2023-01-02T09:28:45.355Z,76.77
2023-01-02T09:31:17.622Z,77.14
2023-01-02T09:33:47.626Z,77.38
2023-01-02T09:36:16.807Z,77.01
2023-01-02T09:38:45.525Z,76.82
2023-01-02T09:41:29.097Z,76.66
2023-01-02T09:44:01.049Z,77.23
2023-01-02T09:46:35.141Z,77.14
2023-01-02T09:49:04.961Z,77.03
2023-01-02T09:51:35.368Z,76.72
2023-01-02T09:54:04.479Z,76.49
2023-01-02T09:56:39.789Z,76.91
2023-01-02T09:59:15.277Z,76.60
2023-01-02T10:01:55.906Z,76.71
2023-01-02T10:04:37.374Z,77.12
2023-01-02T10:07:10.648Z,77.04
2023-01-02T10:09:47.598Z,77.76
2023-01-02T10:12:26.779Z,77.65
2023-01-02T10:14:58.872Z,78.69
2023-01-02T10:17:29.467Z,79.23
2023-01-02T10:20:01.806Z,79.63
2023-01-02T10:22:36.929Z,80.06
2023-01-02T10:25:09.230Z,80.01
2023-01-02T10:27:44.179Z,79.69
2023-01-02T10:30:20.339Z,80.84
2023-01-02T10:32:56.892Z,80.57
2023-01-02T10:35:36.157Z,80.28
2023-01-02T10:38:04.923Z,80.03
2023-01-02T10:40:34.298Z,79.38
2023-01-02T10:43:03.855Z,79.35
2023-01-02T10:45:32.433Z,78.75
2023-01-02T10:48:00.331Z,78.42
2023-01-02T10:50:31.904Z,77.98
2023-01-02T10:53:08.574Z,77.11
2023-01-02T10:55:40.389Z,77.45
2023-01-02T10:58:22.919Z,77.37
2023-01-02T11:00:52.937Z,77.22
2023-01-02T11:03:25.426Z,77.06
2023-01-02T11:05:59.377Z,77.70
2023-01-02T11:08:40.561Z,77.58
2023-01-02T11:11:14.888Z,76.99
2023-01-02T11:13:54.078Z,77.40
2023-01-02T11:16:25.084Z,76.89
2023-01-02T11:18:55.170Z,76.78
2023-01-02T11:21:29.083Z,77.03
2023-01-02T11:24:03.134Z,76.99
2023-01-02T11:26:33.818Z,76.75
2023-01-02T11:29:08.481Z,76.37
2023-01-02T11:31:37.435Z,75.55
2023-01-02T11:34:10.821Z,75.75
2023-01-02T11:36:38.784Z,75.88
2023-01-02T11:39:23.003Z,75.86
2023-01-02T11:42:15.028Z,75.35
2023-01-02T11:44:54.196Z,75.48
2023-01-02T11:47:33.439Z,75.73
2023-01-02T11:50:02.200Z,75.07
2023-01-02T11:52:42.718Z,75.26
2023-01-02T11:55:25.414Z,75.57
2023-01-02T11:58:01.048Z,75.63
2023-01-02T12:00:34.446Z,75.94
2023-01-02T12:03:06.122Z,75.46
2023-01-02T12:05:44.296Z,75.03
2023-01-02T12:08:25.600Z,74.96
2023-01-02T12:11:06.227Z,74.59
2023-01-02T12:13:50.854Z,74.18
2023-01-02T12:16:34.257Z,73.35
2023-01-02T12:19:27.029Z,73.61
2023-01-02T12:22:05.824Z,74.25
2023-01-02T12:24:49.169Z,73.77
2023-01-02T12:27:23.420Z,73.54
2023-01-02T12:30:05.163Z,73.29
2023-01-02T12:33:02.621Z,73.02
2023-01-02T12:35:48.872Z,73.07
2023-01-02T12:38:30.048Z,72.72
2023-01-02T12:41:11.367Z,72.63
2023-01-02T12:44:09.748Z,72.89
2023-01-02T12:47:02.576Z,72.58
2023-01-02T12:49:53.395Z,72.33
2023-01-02T12:52:34.975Z,72.50
2023-01-02T12:55:18.146Z,72.72
2023-01-02T12:57:55.975Z,73.38
2023-01-02T13:01:04.216Z,73.51
2023-01-02T13:04:02.905Z,74.61
2023-01-02T13:06:44.447Z,74.71
2023-01-02T13:09:22.766Z,74.06
2023-01-02T13:12:10.533Z,74.82
2023-01-02T13:14:43.472Z,75.49
2023-01-02T13:17:38.922Z,75.78
2023-01-02T13:20:15.751Z,76.00
2023-01-02T13:22:55.447Z,75.83
2023-01-02T13:25:25.740Z,75.68
2023-01-02T13:27:58.006Z,75.52
2023-01-02T13:30:40.017Z,75.66
2023-01-02T13:33:22.000Z,75.49
2023-01-02T13:35:51.112Z,75.02
2023-01-02T13:38:22.994Z,75.27
2023-01-02T13:40:56.943Z,75.05
2023-01-02T13:43:29.092Z,74.72
2023-01-02T13:45:59.198Z,74.83
2023-01-02T13:48:33.627Z,74.39
2023-01-02T13:51:04.707Z,74.15
2023-01-02T13:53:38.920Z,74.46
2023-01-02T13:56:10.095Z,73.77
2023-01-02T13:58:49.536Z,73.63
2023-01-02T14:01:49.336Z,73.68
2023-01-02T14:04:38.811Z,73.88
2023-01-02T14:07:39.426Z,74.35
2023-01-02T14:10:45.699Z,73.65
2023-01-02T14:13:22.663Z,73.22
2023-01-02T14:16:23.519Z,73.28
2023-01-02T14:19:06.873Z,72.80
2023-01-02T14:21:38.408Z,73.49
2023-01-02T14:24:16.968Z,73.38
2023-01-02T14:26:53.381Z,73.22
2023-01-02T14:29:22.697Z,73.19
2023-01-02T14:31:59.269Z,73.64
2023-01-02T14:34:27.846Z,73.86
2023-01-02T14:36:58.539Z,72.98
2023-01-02T14:39:30.345Z,73.21
2023-01-02T14:42:40.062Z,72.76
2023-01-02T14:45:13.051Z,72.40
2023-01-02T14:47:43.889Z,72.68
2023-01-02T14:50:15.497Z,72.86
2023-01-02T14:52:46.665Z,73.50
2023-01-02T14:55:18.861Z,73.25
2023-01-02T14:57:51.164Z,72.42
2023-01-02T15:00:33.083Z,73.06
2023-01-02T15:03:15.403Z,72.96
2023-01-02T15:05:48.761Z,72.93
2023-01-02T15:08:20.001Z,72.69
2023-01-02T15:11:19.076Z,72.52
2023-01-02T15:14:03.952Z,72.49
2023-01-02T15:16:42.506Z,72.92
2023-01-02T15:19:19.285Z,72.94
2023-01-02T15:21:48.020Z,72.06
2023-01-02T15:24:26.104Z,71.67
2023-01-02T15:26:54.752Z,72.31
2023-01-02T15:29:26.924Z,72.17
2023-01-02T15:31:57.493Z,73.10
2023-01-02T15:34:27.971Z,73.26
2023-01-02T15:36:58.235Z,73.50
2023-01-02T15:39:33.934Z,73.05
2023-01-02T15:42:08.142Z,73.12
2023-01-02T15:44:59.102Z,73.15
2023-01-02T15:47:28.944Z,72.68
2023-01-02T15:49:59.578Z,73.30
2023-01-02T15:52:31.995Z,73.16
2023-01-02T15:55:01.009Z,72.34
2023-01-02T15:57:32.891Z,72.66
2023-01-02T16:00:02.589Z,72.67
2023-01-02T16:02:42.309Z,71.69
2023-01-02T16:05:13.943Z,71.69
2023-01-02T16:07:43.387Z,71.48
2023-01-02T16:10:19.897Z,71.63
2023-01-02T16:12:53.522Z,70.81
2023-01-02T16:15:24.182Z,70.82
2023-01-02T16:17:54.579Z,70.56
2023-01-02T16:20:23.726Z,70.92
2023-01-02T16:22:55.680Z,70.62
2023-01-02T16:25:27.136Z,71.48
2023-01-02T16:28:00.014Z,71.82
2023-01-02T16:30:32.863Z,72.26
2023-01-02T16:33:03.099Z,72.03
2023-01-02T16:35:34.380Z,73.10
2023-01-02T16:38:04.980Z,72.89
2023-01-02T16:41:00.645Z,73.28
2023-01-02T16:43:30.800Z,72.64
2023-01-02T16:46:00.611Z,72.56
2023-01-02T16:48:30.478Z,72.91
2023-01-02T16:50:59.987Z,72.85
2023-01-02T16:53:31.368Z,72.77
2023-01-02T16:56:00.196Z,71.89
2023-01-02T16:58:29.209Z,72.85
2023-01-02T17:00:57.681Z,73.03
2023-01-02T17:03:28.187Z,72.80
2023-01-02T17:06:01.445Z,71.79
2023-01-02T17:08:31.945Z,71.44
2023-01-02T17:11:00.450Z,71.67
2023-01-02T17:13:29.439Z,72.16
2023-01-02T17:15:58.063Z,71.30
2023-01-02T17:18:27.686Z,71.93
2023-01-02T17:20:55.591Z,72.10
2023-01-02T17:23:23.533Z,72.74
2023-01-02T17:25:51.668Z,71.63
2023-01-02T17:28:20.032Z,72.65
2023-01-02T17:30:49.982Z,72.67
2023-01-02T17:33:18.483Z,71.90
2023-01-02T17:35:48.002Z,71.96
2023-01-02T17:38:16.826Z,72.18
2023-01-02T17:40:45.287Z,71.82
2023-01-02T17:43:13.435Z,72.14
2023-01-02T17:45:42.774Z,71.77
2023-01-02T17:48:13.581Z,71.57
2023-01-02T17:50:44.374Z,72.05
2023-01-02T17:53:13.823Z,71.93
2023-01-02T17:55:41.719Z,71.47
2023-01-02T17:58:09.748Z,70.82
2023-01-02T18:00:37.918Z,71.14
2023-01-02T18:03:05.949Z,70.60
2023-01-02T18:05:36.774Z,70.61
2023-01-02T18:08:06.041Z,70.30
2023-01-02T18:10:38.333Z,70.59
2023-01-02T18:13:07.326Z,70.77
2023-01-02T18:15:36.172Z,70.09
2023-01-02T18:18:14.545Z,69.66
2023-01-02T18:20:45.906Z,70.15
2023-01-02T18:23:15.056Z,70.07
2023-01-02T18:25:44.608Z,69.77
2023-01-02T18:28:23.103Z,69.93
2023-01-02T18:30:56.132Z,69.18
2023-01-02T18:33:26.370Z,68.61
2023-01-02T18:35:59.924Z,68.49
2023-01-02T18:38:30.582Z,68.97
2023-01-02T18:41:00.179Z,68.90
2023-01-02T18:43:30.247Z,68.32
2023-01-02T18:46:01.564Z,69.41
2023-01-02T18:48:29.626Z,69.89
2023-01-02T18:51:00.804Z,69.40
2023-01-02T18:53:36.885Z,69.92
2023-01-02T18:56:16.118Z,70.04
2023-01-02T18:58:47.329Z,69.52
2023-01-02T19:01:27.659Z,69.80
2023-01-02T19:04:27.378Z,69.69
2023-01-02T19:06:58.315Z,69.13
2023-01-02T19:09:30.766Z,69.71
2023-01-02T19:12:34.565Z,69.44
2023-01-02T19:15:37.600Z,70.01
2023-01-02T19:18:27.367Z,69.61
2023-01-02T19:21:04.099Z,69.17
2023-01-02T19:23:36.240Z,68.92
2023-01-02T19:26:16.379Z,68.49
2023-01-02T19:28:51.834Z,67.87
2023-01-02T19:31:20.108Z,67.77
2023-01-02T19:33:53.641Z,67.53
2023-01-02T19:36:33.031Z,67.33
2023-01-02T19:39:01.700Z,67.72
2023-01-02T19:41:47.307Z,67.64
2023-01-02T19:44:16.658Z,66.96
2023-01-02T19:46:44.665Z,67.29
2023-01-02T19:49:13.695Z,67.48
2023-01-02T19:51:41.728Z,67.80
2023-01-02T19:54:10.493Z,67.80
2023-01-02T19:56:38.842Z,67.95
2023-01-02T19:59:12.500Z,67.70
2023-01-02T20:01:42.672Z,67.33
2023-01-02T20:04:10.951Z,67.33
2023-01-02T20:06:40.421Z,67.36
2023-01-02T20:09:09.248Z,67.41
2023-01-02T20:11:54.563Z,66.99
2023-01-02T20:14:22.602Z,66.87
2023-01-02T20:16:52.084Z,67.16
2023-01-02T20:19:19.991Z,67.14
2023-01-02T20:21:48.169Z,67.66
2023-01-02T20:24:16.201Z,67.08
2023-01-02T20:26:44.178Z,67.02
2023-01-02T20:29:12.556Z,66.63
2023-01-02T20:31:40.515Z,65.97
2023-01-02T20:34:10.152Z,64.95
2023-01-02T20:36:38.202Z,64.28
2023-01-02T20:39:06.427Z,64.82
2023-01-02T20:41:35.121Z,65.33
2023-01-02T20:44:03.165Z,65.82
2023-01-02T20:46:31.400Z,65.51
2023-01-02T20:48:59.428Z,65.65
2023-01-02T20:51:30.203Z,66.25
2023-01-02T20:53:59.137Z,66.38
2023-01-02T20:56:27.603Z,66.17
2023-01-02T20:58:56.277Z,66.11
2023-01-02T21:01:24.889Z,65.95
2023-01-02T21:03:53.473Z,66.83
2023-01-02T21:06:22.099Z,66.96
2023-01-02T21:08:51.428Z,66.88
2023-01-02T21:11:19.331Z,66.99
2023-01-02T21:13:47.430Z,66.92
2023-01-02T21:16:16.350Z,66.97
2023-01-02T21:18:44.584Z,66.60
2023-01-02T21:21:16.578Z,66.62
2023-01-02T21:23:45.447Z,66.20
2023-01-02T21:26:16.774Z,66.35
2023-01-02T21:28:47.219Z,66.52
2023-01-02T21:31:15.731Z,66.42
2023-01-02T21:33:44.692Z,66.48
2023-01-02T21:36:12.723Z,66.68
2023-01-02T21:38:40.893Z,66.03
2023-01-02T21:41:26.584Z,65.91
2023-01-02T21:43:55.853Z,65.45
2023-01-02T21:46:23.916Z,66.01
2023-01-02T21:48:51.844Z,66.03
2023-01-02T21:51:19.973Z,65.96
2023-01-02T21:53:47.868Z,66.39
2023-01-02T21:56:15.749Z,66.14
2023-01-02T21:58:43.621Z,66.06
2023-01-02T22:01:12.896Z,66.27
2023-01-02T22:03:40.912Z,66.45
2023-01-02T22:06:08.866Z,66.42
2023-01-02T22:08:36.828Z,66.19
2023-01-02T22:11:22.522Z,66.31
2023-01-02T22:13:50.431Z,66.01
2023-01-02T22:16:19.923Z,66.08
2023-01-02T22:18:49.261Z,66.73
2023-01-02T22:21:17.136Z,66.91
2023-01-02T22:23:44.970Z,66.57
2023-01-02T22:26:12.875Z,66.78
2023-01-02T22:28:42.836Z,66.48
2023-01-02T22:31:12.117Z,66.29
2023-01-02T22:33:42.451Z,66.28
2023-01-02T22:36:10.653Z,65.89
2023-01-02T22:38:55.120Z,65.79
2023-01-02T22:41:29.634Z,65.94
2023-01-02T22:43:58.832Z,66.04
2023-01-02T22:46:31.366Z,66.43
2023-01-02T22:49:00.786Z,66.46
2023-01-02T22:51:57.619Z,65.95
2023-01-02T22:54:19.799Z,66.25
2023-01-02T22:56:48.459Z,65.56
2023-01-02T22:59:16.714Z,65.64
2023-01-02T23:01:47.232Z,65.52
2023-01-02T23:04:19.020Z,65.36
2023-01-02T23:07:22.319Z,65.11
2023-01-02T23:09:36.885Z,65.34
2023-01-02T23:12:05.693Z,65.03
2023-01-02T23:14:33.686Z,65.23
2023-01-02T23:17:19.278Z,65.33
2023-01-02T23:19:48.588Z,65.21
2023-01-02T23:22:16.537Z,65.29
2023-01-02T23:24:44.455Z,66.17
2023-01-02T23:27:13.671Z,65.55
2023-01-02T23:29:42.455Z,66.50
2023-01-02T23:32:12.662Z,66.45
2023-01-02T23:34:41.466Z,66.92
2023-01-02T23:37:10.861Z,66.09
2023-01-02T23:39:38.747Z,66.67
2023-01-02T23:42:07.452Z,67.03
2023-01-02T23:44:35.376Z,67.30
2023-01-02T23:47:09.323Z,68.06
2023-01-02T23:49:38.930Z,68.42
2023-01-02T23:52:07.809Z,67.72
2023-01-02T23:54:37.426Z,67.79
2023-01-02T23:57:05.455Z,67.54
2023-01-02T23:59:33.764Z,67.10
